createdAt,value
2022-12-08T00:01:32.630Z,6.70
2022-12-08T00:06:58.629Z,7.55
2022-12-08T00:12:02.266Z,8.07
2022-12-08T00:17:05.727Z,22.50
2022-12-08T00:22:09.712Z,7.85
2022-12-08T00:27:13.553Z,8.40
2022-12-08T00:32:16.320Z,8.02
2022-12-08T00:37:19.238Z,7.60
2022-12-08T00:42:21.790Z,8.18
2022-12-08T00:47:25.070Z,7.25
2022-12-08T00:52:27.930Z,8.98
2022-12-08T00:57:30.607Z,7.30
2022-12-08T01:02:34.501Z,7.47
2022-12-08T01:07:37.015Z,6.97
2022-12-08T01:12:39.582Z,7.10
2022-12-08T01:17:42.120Z,7.03
2022-12-08T01:22:44.618Z,7.72
2022-12-08T01:27:47.246Z,6.97
2022-12-08T01:32:49.695Z,6.78
2022-12-08T01:37:52.224Z,7.15
2022-12-08T01:42:54.813Z,7.30
2022-12-08T01:48:02.934Z,7.15
2022-12-08T01:53:14.765Z,7.60
2022-12-08T01:58:20.243Z,8.23
2022-12-08T02:03:26.042Z,8.05
2022-12-08T02:08:29.062Z,8.77
2022-12-08T02:13:32.878Z,7.43
2022-12-08T02:18:35.406Z,8.02
2022-12-08T02:23:56.470Z,7.88
2022-12-08T02:29:02.514Z,7.88
2022-12-08T02:34:20.468Z,7.47
2022-12-08T02:39:33.354Z,7.40
2022-12-08T02:49:40.036Z,6.60
2022-12-08T02:54:46.674Z,6.95
2022-12-08T02:59:58.303Z,7.57
2022-12-08T03:05:08.096Z,7.25
2022-12-08T03:10:12.581Z,6.93
2022-12-08T03:15:17.047Z,7.18
2022-12-08T03:20:24.184Z,6.75
2022-12-08T03:25:27.806Z,6.68
2022-12-08T03:30:32.419Z,6.35
2022-12-08T03:35:36.423Z,6.40
2022-12-08T03:40:39.618Z,6.75
2022-12-08T03:45:42.223Z,6.57
2022-12-08T03:50:44.774Z,6.28
2022-12-08T03:55:47.434Z,6.32
2022-12-08T04:00:50.030Z,6.18
2022-12-08T04:05:59.088Z,6.70
2022-12-08T04:11:02.100Z,7.97
2022-12-08T04:16:05.514Z,8.05
2022-12-08T04:21:08.217Z,8.00
2022-12-08T04:26:11.072Z,8.30
2022-12-08T04:31:13.651Z,8.05
2022-12-08T04:36:16.223Z,9.32
2022-12-08T04:41:18.779Z,9.55
2022-12-08T04:46:21.394Z,10.02
2022-12-08T04:51:24.025Z,12.38
2022-12-08T04:56:26.523Z,8.80
2022-12-08T05:01:29.112Z,9.30
2022-12-08T05:06:31.802Z,9.82
2022-12-08T05:11:34.558Z,10.52
2022-12-08T05:16:37.371Z,11.27
2022-12-08T05:21:40.182Z,11.32
2022-12-08T05:26:42.666Z,12.52
2022-12-08T05:31:45.325Z,9.52
2022-12-08T05:36:48.338Z,11.02
2022-12-08T05:41:51.011Z,11.63
2022-12-08T05:46:53.751Z,12.48
2022-12-08T05:51:56.693Z,12.77
2022-12-08T05:56:59.977Z,13.13
2022-12-08T06:02:02.710Z,13.20
2022-12-08T06:07:05.318Z,13.50
2022-12-08T06:12:08.168Z,13.95
2022-12-08T06:17:10.977Z,14.65
2022-12-08T06:22:16.024Z,13.85
2022-12-08T06:27:18.705Z,14.38
2022-12-08T06:32:27.118Z,13.88
2022-12-08T06:37:30.234Z,14.77
2022-12-08T06:42:45.173Z,14.02
2022-12-08T06:47:47.733Z,12.88
2022-12-08T06:53:01.108Z,13.48
2022-12-08T06:58:07.687Z,14.38
2022-12-08T07:03:11.051Z,13.70
2022-12-08T07:08:13.736Z,13.93
2022-12-08T07:13:16.942Z,14.60
2022-12-08T07:18:19.713Z,14.20
2022-12-08T07:23:22.257Z,14.45
2022-12-08T07:28:24.797Z,12.95
2022-12-08T07:33:27.835Z,14.20
2022-12-08T07:38:31.628Z,13.68
2022-12-08T07:43:37.401Z,13.23
2022-12-08T07:48:40.557Z,12.40
2022-12-08T07:53:48.388Z,13.50
2022-12-08T07:58:54.267Z,14.40
2022-12-08T08:03:57.580Z,12.23
2022-12-08T08:09:00.285Z,12.80
2022-12-08T08:14:03.279Z,12.45
2022-12-08T08:19:06.055Z,12.18
2022-12-08T08:24:08.919Z,11.38
2022-12-08T08:29:11.515Z,11.70
2022-12-08T08:34:14.291Z,11.23
2022-12-08T08:39:16.824Z,10.48
2022-12-08T08:44:19.478Z,10.95
2022-12-08T08:49:22.074Z,10.93
2022-12-08T08:54:24.668Z,11.43
2022-12-08T08:59:27.519Z,11.23
2022-12-08T09:04:30.499Z,10.95
2022-12-08T09:09:36.078Z,11.02
2022-12-08T09:14:39.739Z,10.75
2022-12-08T09:19:45.589Z,12.13
2022-12-08T09:24:48.939Z,11.73
2022-12-08T09:29:51.504Z,11.40
2022-12-08T09:34:54.518Z,11.00
2022-12-08T09:39:57.966Z,10.98
2022-12-08T09:45:11.360Z,10.98
2022-12-08T09:50:17.136Z,11.07
2022-12-08T09:55:22.736Z,12.38
2022-12-08T10:00:25.904Z,11.10
2022-12-08T10:05:29.583Z,10.80
2022-12-08T10:10:41.401Z,10.73
2022-12-08T10:15:44.035Z,11.07
2022-12-08T10:20:48.800Z,10.10
2022-12-08T10:25:53.896Z,11.10
2022-12-08T10:30:56.732Z,10.73
2022-12-08T10:36:03.231Z,11.07
2022-12-08T10:41:06.180Z,13.60
2022-12-08T10:46:13.410Z,11.18
2022-12-08T10:51:23.228Z,10.27
2022-12-08T10:56:27.859Z,10.23
2022-12-08T11:01:34.976Z,10.73
2022-12-08T11:06:39.228Z,15.25
2022-12-08T11:11:57.012Z,16.75
2022-12-08T11:22:27.129Z,11.43
2022-12-08T11:27:31.309Z,10.50
2022-12-08T11:32:35.836Z,10.48
2022-12-08T11:37:40.261Z,11.95
2022-12-08T11:42:51.864Z,11.85
2022-12-08T11:53:42.630Z,10.23
2022-12-08T11:58:47.275Z,11.40
2022-12-08T12:04:15.978Z,11.00
2022-12-08T12:09:22.339Z,11.70
2022-12-08T12:14:44.458Z,13.27
2022-12-08T12:19:47.787Z,33.38
2022-12-08T12:24:51.804Z,16.70
2022-12-08T12:29:57.917Z,15.45
2022-12-08T12:35:00.995Z,20.48
2022-12-08T12:40:06.242Z,12.57
2022-12-08T12:45:12.018Z,13.85
2022-12-08T12:50:15.720Z,18.52
2022-12-08T12:55:21.666Z,14.75
2022-12-08T13:00:25.491Z,11.85
2022-12-08T13:05:28.274Z,10.32
2022-12-08T13:10:33.184Z,10.48
2022-12-08T13:15:39.955Z,9.60
2022-12-08T13:20:46.116Z,10.88
2022-12-08T13:25:49.978Z,10.27
2022-12-08T13:30:54.298Z,9.93
2022-12-08T13:36:02.553Z,9.70
2022-12-08T13:41:08.382Z,9.50
2022-12-08T13:47:03.124Z,8.60
2022-12-08T13:57:11.467Z,7.55
2022-12-08T14:02:14.629Z,8.85
2022-12-08T14:07:17.857Z,8.32
2022-12-08T14:12:30.820Z,7.20
2022-12-08T14:17:34.143Z,7.78
2022-12-08T14:22:38.236Z,8.40
2022-12-08T14:27:41.179Z,8.15
2022-12-08T14:32:44.485Z,8.70
2022-12-08T14:37:48.582Z,8.70
2022-12-08T14:43:14.745Z,8.10
2022-12-08T14:48:23.793Z,7.97
2022-12-08T14:53:28.877Z,8.38
2022-12-08T14:58:31.932Z,8.10
2022-12-08T15:03:34.876Z,8.20
2022-12-08T15:08:51.725Z,9.13
2022-12-08T15:13:54.946Z,8.82
2022-12-08T15:19:16.859Z,8.95
2022-12-08T15:24:20.056Z,8.68
2022-12-08T15:29:24.132Z,13.43
2022-12-08T15:34:26.906Z,8.77
2022-12-08T15:39:29.643Z,9.32
2022-12-08T15:44:33.081Z,8.52
2022-12-08T15:49:35.996Z,9.23
2022-12-08T15:54:39.139Z,9.40
2022-12-08T15:59:41.934Z,8.27
2022-12-08T16:10:08.540Z,8.00
2022-12-08T16:21:06.175Z,8.73
2022-12-08T16:31:23.612Z,13.05
2022-12-08T16:36:26.255Z,9.05
2022-12-08T16:41:47.324Z,18.02
2022-12-08T16:46:50.064Z,10.50
2022-12-08T16:51:53.148Z,15.75
2022-12-08T16:56:55.779Z,17.23
2022-12-08T17:01:58.530Z,9.23
2022-12-08T17:07:01.119Z,7.93
2022-12-08T17:12:04.500Z,8.93
2022-12-08T17:17:07.733Z,7.97
2022-12-08T17:22:10.670Z,7.05
2022-12-08T17:27:13.448Z,7.07
2022-12-08T17:32:20.270Z,7.65
2022-12-08T17:37:23.461Z,7.63
2022-12-08T17:42:27.708Z,8.07
2022-12-08T17:47:30.484Z,8.02
2022-12-08T17:52:33.375Z,8.85
2022-12-08T17:57:36.119Z,9.65
2022-12-08T18:02:39.279Z,10.10
2022-12-08T18:07:42.679Z,9.45
2022-12-08T18:12:45.734Z,9.32
2022-12-08T18:17:48.566Z,8.52
2022-12-08T18:22:51.759Z,9.60
2022-12-08T18:27:59.006Z,9.63
2022-12-08T18:33:05.212Z,17.02
2022-12-08T18:38:08.155Z,8.40
2022-12-08T18:43:10.847Z,9.63
2022-12-08T18:48:14.555Z,9.32
2022-12-08T18:53:17.642Z,8.68
2022-12-08T18:58:20.453Z,9.63
2022-12-08T19:03:23.477Z,10.70
2022-12-08T19:08:31.194Z,9.98
2022-12-08T19:13:34.183Z,11.10
2022-12-08T19:18:39.570Z,11.23
2022-12-08T19:23:43.142Z,10.18
2022-12-08T19:28:45.955Z,10.02
2022-12-08T19:33:48.543Z,10.75
2022-12-08T19:39:10.016Z,9.60
2022-12-08T19:44:37.398Z,9.32
2022-12-08T19:49:39.929Z,8.45
2022-12-08T19:54:42.938Z,8.50
2022-12-08T19:59:45.884Z,8.23
2022-12-08T20:04:48.818Z,7.70
2022-12-08T20:09:51.738Z,7.85
2022-12-08T20:14:54.465Z,7.28
2022-12-08T20:19:57.217Z,8.15
2022-12-08T20:25:01.165Z,8.38
2022-12-08T20:30:04.762Z,11.73
2022-12-08T20:35:08.325Z,8.52
2022-12-08T20:40:11.494Z,8.15
2022-12-08T20:45:14.164Z,8.65
2022-12-08T20:50:16.940Z,8.45
2022-12-08T20:55:19.633Z,9.40
2022-12-08T21:00:26.344Z,9.57
2022-12-08T21:05:29.218Z,9.43
2022-12-08T21:10:42.213Z,9.10
2022-12-08T21:15:47.063Z,8.48
2022-12-08T21:20:50.309Z,8.65
2022-12-08T21:25:53.640Z,8.60
2022-12-08T21:30:56.486Z,8.15
2022-12-08T21:36:09.161Z,8.65
2022-12-08T21:41:13.601Z,8.02
2022-12-08T21:46:17.528Z,9.05
2022-12-08T21:51:20.334Z,8.90
2022-12-08T21:56:23.583Z,9.23
2022-12-08T22:01:27.185Z,9.18
2022-12-08T22:06:32.989Z,9.82
2022-12-08T22:11:38.862Z,10.38
2022-12-08T22:16:41.606Z,8.35
2022-12-08T22:21:44.470Z,8.68
2022-12-08T22:26:47.285Z,9.27
2022-12-08T22:31:50.395Z,8.60
2022-12-08T22:36:53.227Z,8.93
2022-12-08T22:41:56.008Z,9.35
2022-12-08T22:46:58.712Z,8.85
2022-12-08T22:52:01.588Z,10.13
2022-12-08T22:57:05.239Z,10.27
2022-12-08T23:02:08.736Z,10.02
2022-12-08T23:07:11.635Z,10.40
2022-12-08T23:12:14.564Z,9.88
2022-12-08T23:17:17.647Z,9.52
2022-12-08T23:22:20.523Z,10.10
2022-12-08T23:27:23.358Z,9.98
2022-12-08T23:32:26.130Z,9.70
2022-12-08T23:42:31.561Z,9.85
2022-12-08T23:47:34.957Z,9.43
2022-12-08T23:52:39.830Z,10.18
2022-12-08T23:57:43.109Z,9.68
